Endeavor — WCE5063 — position and weather

sailwx.info

Track history (hours):
 
Tides and Currents Weather Stations Pressure Air Temp Water Temp Dewpoint Dewpoint Depression Visibility Wind Speed Wind Dir Waves Ship Positions

Oceanographic research ship Endeavor (USA)

Detailed information on ship capabilities available from University of Delaware's Ocean Information Center.

Owner: UNIVERSITY OF RHODE ISLAND, Narragansett, RI. More information available from US FCC via Universal Licensing System and Coast Guard Vessel Documentation Center.

Last reported at 2018-Apr-23 09:00 UTC. Time now 2018-Apr-23 09:47 UTC.
Position N 41°30' W 071°24'.

Type: Ship. MMSI: 303471000.

Wind at 6 knots

Barometer 1030.0 mb
Air temperature 8.7 ° C
Dewpoint -8.3 ° C
Water temperature 8.8 ° C

Date/timePositionNaut miles runAvg speedWind from/ knotsBaromVisibWave heightAir tempDewpointWater temp
2018-Apr-23 09:00N 41°30' W 071°24'0 0.0 1030.0 8.7-8.3 8.8
2018-Apr-23 08:00N 41°30' W 071°24'0 0.0 250 / 11029.5 8.7-8.7 8.8
2018-Apr-23 07:00N 41°30' W 071°24'0 0.0 300 1029.0 7.5-6.9 9.0
2018-Apr-23 06:00N 41°30' W 071°24'0 0.0 1028.7 7.1-3.4 9.2
2018-Apr-23 05:00N 41°30' W 071°24'0 0.0 260 1028.4 8.3-2.3 9.2
2018-Apr-23 04:00N 41°30' W 071°24'0 0.0 270 / 91028.2 9.3-3.3 9.4
2018-Apr-23 03:00N 41°30' W 071°24'0 0.0 270 / 81028.0 10.0-3.0 9.5
2018-Apr-23 02:00N 41°30' W 071°24'0 0.0 270 / 41027.9 9.8-2.2 9.6
2018-Apr-23 01:00N 41°30' W 071°24'0 0.0 250 / 51027.1 9.6-0.610.0
2018-Apr-23 00:00N 41°30' W 071°24'0 0.0 220 / 81026.4 9.9-0.3 9.8
2018-Apr-22 23:00N 41°30' W 071°24'0 0.0 200 / 91025.9 11.5-1.310.0
2018-Apr-22 22:00N 41°30' W 071°24'0 0.0 210 / 71026.1 11.5-2.0 9.9
2018-Apr-22 21:00N 41°30' W 071°24'0 0.0 180 / 121026.2 9.6 2.4 9.8
2018-Apr-22 20:00N 41°30' W 071°24'0 0.0 180 / 161026.1 10.8-1.8 9.2
2018-Apr-22 19:00N 41°30' W 071°24'0 0.0 170 / 141026.5 11.6-2.1 9.3
2018-Apr-22 18:00N 41°30' W 071°24'0 0.0 190 / 131026.9 11.0-3.9 9.3
2018-Apr-22 17:00N 41°30' W 071°24'0 0.0 170 / 131027.2 9.6-2.7 9.8
2018-Apr-22 16:00N 41°30' W 071°24'0 0.0 050 / 61027.4 15.0-7.7 9.4
2018-Apr-22 15:00N 41°30' W 071°24'0 0.0 020 / 41027.7 11.9-7.4 9.0
2018-Apr-22 14:00N 41°30' W 071°24'0 0.0 010 / 101027.8 10.4-5.5 8.8
2018-Apr-22 13:00N 41°30' W 071°24'1 1.7 340 / 101028.1 10.9-9.4 8.6
2018-Apr-22 12:12N 41°29' W 071°25'523.1
2018-Apr-22 12:00N 41°24' W 071°24'5 4.5 320 / 31027.9 7.7-5.2 7.7
2018-Apr-22 11:00N 41°24' W 071°18'0 0.0 310 / 71027.4 7.0-2.7 7.4
2018-Apr-22 10:00N 41°24' W 071°18'0 0.0 320 / 51027.0 7.2-3.5 7.5
2018-Apr-22 09:00N 41°24' W 071°18'0 0.0 330 / 81026.6 7.4-4.3 7.6
2018-Apr-22 08:00N 41°24' W 071°18'6 6.0 350 / 71026.5 7.8 0.1 7.9
2018-Apr-22 07:00N 41°18' W 071°18'0 0.0 350 / 101026.0 8.2-0.3 7.9
2018-Apr-22 06:00N 41°18' W 071°18'6 6.0 340 / 121025.8 8.4-0.6 7.6
2018-Apr-22 05:00N 41°12' W 071°18'8 7.5 300 / 121025.5 8.6 0.8 7.5
2018-Apr-22 04:00N 41°06' W 071°12'6 6.0 260 / 171025.3 8.2 4.8 7.3
2018-Apr-22 03:00N 41°00' W 071°12'6 6.0 250 / 171025.3 8.2 4.8 7.2
2018-Apr-22 02:00N 40°54' W 071°12'0 0.0 250 / 181025.4 8.3 4.1 7.1
2018-Apr-22 01:00N 40°54' W 071°12'6 6.0 240 / 181025.1 8.4 5.0 7.0
2018-Apr-22 00:00N 40°48' W 071°12'1212.0 230 / 171024.6 8.9 4.3 7.2
2018-Apr-21 23:00N 40°36' W 071°12'8 7.5 230 / 161024.2 9.6 4.4 7.5
2018-Apr-21 22:00N 40°30' W 071°06'6 6.0 240 / 161024.4 9.5 3.5 8.1
2018-Apr-21 21:00N 40°24' W 071°06'1212.0 250 / 141025.1 9.8 3.3 8.8
2018-Apr-21 20:00N 40°12' W 071°06'0 0.0 270 / 141025.5 8.8 3.1 9.1
2018-Apr-21 19:00N 40°12' W 071°06'0 0.0 270 / 121026.0 8.4 2.5 9.2
2018-Apr-21 18:00N 40°12' W 071°06'0 0.0 290 / 141026.6 7.3 2.0 9.3
2018-Apr-21 17:00N 40°12' W 071°06'0 0.0 290 / 161026.8 7.3 1.6 9.3
2018-Apr-21 16:00N 40°12' W 071°06'0 0.0 300 / 141027.4 7.2 2.1 9.4
2018-Apr-21 15:00N 40°12' W 071°06'0 0.0 290 / 221027.5 7.5 2.8 9.2
2018-Apr-21 14:00N 40°12' W 071°06'0 0.0 310 / 141027.3 7.3 2.4 9.2
2018-Apr-21 13:00N 40°12' W 071°06'0 0.0 310 / 161027.1 8.0 2.7 9.2
2018-Apr-21 12:00N 40°12' W 071°06'0 0.0 320 / 151027.3 8.0 1.8 9.0
2018-Apr-21 11:00N 40°12' W 071°06'0 0.0 310 / 171026.8 7.2 1.4 9.1
2018-Apr-21 10:00N 40°12' W 071°06'0 0.0 320 / 191026.2 7.5 0.7 9.1
2018-Apr-21 09:00N 40°12' W 071°06'0 0.0 320 / 161026.0 7.0 1.3 9.1
2018-Apr-21 08:00N 40°12' W 071°06'0 0.0 330 / 141025.6 8.6 3.1 9.1
2018-Apr-21 07:00N 40°12' W 071°06'0 0.0 340 / 131025.3 7.1 1.8 9.2
2018-Apr-21 06:00N 40°12' W 071°06'0 0.0 340 / 181025.2 7.2 1.1 9.2
2018-Apr-21 05:00N 40°12' W 071°06'0 0.0 340 / 201025.1 7.3-0.2 9.3
2018-Apr-21 04:00N 40°12' W 071°06'0 0.0 330 / 191024.8 7.6 1.5 9.2
2018-Apr-21 03:00N 40°12' W 071°06'0 0.0 320 / 261024.0 9.0 1.9 9.4
2018-Apr-21 02:00N 40°12' W 071°06'0 0.0 300 / 201023.3 9.7 3.2 9.2
2018-Apr-21 01:00N 40°12' W 071°06'0 0.0 280 / 171022.9 8.9 2.8 9.5
2018-Apr-21 00:00N 40°12' W 071°06'0 0.0 270 / 161022.1 7.9 2.7 9.4
2018-Apr-20 23:00N 40°12' W 071°06'0 0.0 270 / 191021.1 7.8 2.3 9.4
2018-Apr-20 22:00N 40°12' W 071°06'0 0.0 280 / 171021.0 7.5 1.6 9.4
2018-Apr-20 21:00N 40°12' W 071°06'0 0.0 270 / 131020.7 7.6 0.3 9.2
2018-Apr-20 20:00N 40°12' W 071°06'0 0.0 280 / 241019.9 7.1-1.5 9.1
2018-Apr-20 19:00N 40°12' W 071°06'0 0.0 290 / 231019.6 6.5-1.2 9.2
2018-Apr-20 18:00N 40°12' W 071°06'0 0.0 300 / 181019.5 6.0-0.5 9.3
2018-Apr-20 17:00N 40°12' W 071°06'6 6.0 280 / 291018.7 5.4-1.9 9.1
2018-Apr-20 16:00N 40°18' W 071°06'6 6.0 290 / 241018.5 5.0-1.4 9.1
2018-Apr-20 15:00N 40°12' W 071°06'0 0.0 310 / 201018.3 4.7-2.3 9.0
2018-Apr-20 14:00N 40°12' W 071°06'0 0.0 320 / 131018.0 4.7-2.0 8.8
2018-Apr-20 13:00N 40°12' W 071°06'0 0.0 300 / 221017.3 4.5-2.8 8.7
2018-Apr-20 12:00N 40°12' W 071°06'0 0.0 300 / 241016.7 4.6-3.5 8.7
2018-Apr-20 11:00N 40°12' W 071°06'0 0.0 320 / 281015.6 4.9-2.6 8.6
2018-Apr-20 10:00N 40°12' W 071°06'0 0.0 310 / 261015.0 4.8-3.0 8.7
2018-Apr-20 09:00N 40°12' W 071°06'0 0.0 300 / 241014.5 5.4-1.9 8.8
2018-Apr-20 08:00N 40°12' W 071°06'6 6.0 300 / 271013.7 5.4-2.6 8.9
2018-Apr-20 07:00N 40°18' W 071°06'0 0.0 300 / 301013.3 5.7-2.9 8.8
2018-Apr-20 06:00N 40°18' W 071°06'6 6.0 310 / 231012.8 6.1-0.6 8.9
2018-Apr-20 05:00N 40°12' W 071°06'6 6.0 310 / 281012.7 6.2-1.2 9.1
2018-Apr-20 04:00N 40°18' W 071°06'0 0.0 300 / 271011.8 6.6-0.1 8.8
2018-Apr-20 03:00N 40°18' W 071°06'0 0.0 300 / 241011.3 6.8 1.7 9.1
2018-Apr-20 02:00N 40°18' W 071°06'0 0.0 290 / 201011.1 7.0 4.1 9.0
2018-Apr-20 01:00N 40°18' W 071°06'6 6.0 290 / 211010.2 7.2 4.2 8.9
2018-Apr-20 00:00N 40°12' W 071°06'0 0.0 300 / 161009.1 7.0 4.3 9.0
2018-Apr-19 23:00N 40°12' W 071°06'6 6.0 300 / 121008.4 6.6 4.8 9.1
2018-Apr-19 22:00N 40°18' W 071°06'0 0.0 310 / 151007.3 6.6 4.9 8.9
2018-Apr-19 21:00N 40°18' W 071°06'0 0.0 330 / 131006.5 6.9 5.4 8.8
2018-Apr-19 20:00N 40°18' W 071°06'0 0.0 020 / 111004.9 6.5 4.8 8.7
2018-Apr-19 19:00N 40°18' W 071°06'6 6.0 040 / 131004.0 7.0 5.0 8.7
2018-Apr-19 18:00N 40°12' W 071°06'0 0.0 350 / 231004.9 6.8 5.0 8.8
2018-Apr-19 17:00N 40°12' W 071°06'6 6.0 050 / 151002.7 7.6 5.2 8.8
2018-Apr-19 16:00N 40°18' W 071°06'0 0.0 060 / 181002.0 7.6 5.1 8.8
2018-Apr-19 15:00N 40°18' W 071°06'0 0.0 050 / 181002.1 7.6 4.9 8.8
2018-Apr-19 14:00N 40°18' W 071°06'0 0.0 040 / 201003.4 7.6 5.1 8.8
2018-Apr-19 13:00N 40°18' W 071°06'6 6.0 030 / 141004.2 8.1 5.6 8.8
2018-Apr-19 12:00N 40°12' W 071°06'0 0.0 040 / 121003.9 8.9 6.7 8.8
2018-Apr-19 11:00N 40°12' W 071°06'0 0.0 090 / 141004.0 8.7 4.9 8.8
2018-Apr-19 10:00N 40°12' W 071°06'0 0.0 070 / 81005.3 8.3 5.2 8.8
2018-Apr-19 09:00N 40°12' W 071°06'6 6.0 140 / 101006.5 8.2 5.0 8.8
2018-Apr-19 08:00N 40°18' W 071°06'0 0.0 190 / 31007.5 8.4 4.2 8.7
2018-Apr-19 07:00N 40°18' W 071°06'0 0.0 210 / 81008.3 8.0 4.8 8.7
2018-Apr-19 06:00N 40°18' W 071°06'0 0.0 210 / 131008.6 8.5 4.9 8.7
2018-Apr-19 05:00N 40°18' W 071°06'0 0.0 220 / 131008.8 7.8 4.0 8.8
2018-Apr-19 04:00N 40°18' W 071°06'0 0.0 220 / 161009.3 7.7 3.6 8.7
2018-Apr-19 03:00N 40°18' W 071°06'0 0.0 230 / 201009.3 7.6 2.9 8.6
2018-Apr-19 02:00N 40°18' W 071°06'0 0.0 230 / 191009.6 7.5 3.3 8.7
2018-Apr-19 01:00N 40°18' W 071°06'6 6.0 230 / 161009.3 7.3 3.0 8.8
2018-Apr-19 00:00N 40°12' W 071°06'8 7.5 240 / 201009.0 7.6 2.5 8.8
2018-Apr-18 23:00N 40°18' W 071°00'8 7.5 250 / 171009.0 7.5 2.0 8.8
2018-Apr-18 22:00N 40°12' W 071°06'0 0.0 250 / 121009.1 7.2 1.3 8.7
2018-Apr-18 21:00N 40°12' W 071°06'0 0.0 260 / 181009.2 7.2 1.5 8.7
2018-Apr-18 20:00N 40°12' W 071°06'0 0.0 270 / 231009.1 6.9 0.2 8.6
2018-Apr-18 19:00N 40°12' W 071°06'0 0.0 270 / 221009.1 6.6-0.2 8.5
2018-Apr-18 18:00N 40°12' W 071°06'0 0.0 270 / 201009.5 6.3 0.9 8.6
2018-Apr-18 17:00N 40°12' W 071°06'6 6.0 250 / 271008.8 6.1-0.7 8.6
2018-Apr-18 16:00N 40°18' W 071°06'0 0.0 260 / 241008.4 5.9-1.5 8.5
2018-Apr-18 15:00N 40°18' W 071°06'0 0.0 270 / 261008.9 5.7-1.9 8.4
2018-Apr-18 14:00N 40°18' W 071°06'0 0.0 280 / 251008.5 5.5-3.6 8.5
2018-Apr-18 13:00N 40°18' W 071°06'0 0.0 280 / 231008.2 5.3-2.0 8.5
2018-Apr-18 12:00N 40°18' W 071°06'0 0.0 280 / 231008.3 5.1-4.3 8.5
2018-Apr-18 11:00N 40°18' W 071°06'0 0.0 280 / 161007.8 5.1-4.3 8.5
2018-Apr-18 10:00N 40°18' W 071°06'0 0.0 300 / 211007.1 5.3-2.5 8.7
2018-Apr-18 09:00N 40°18' W 071°06'0 0.0 300 / 221006.6 6.0-1.4 8.7
2018-Apr-18 08:00N 40°18' W 071°06'0 0.0 280 / 221006.3 6.2-0.4 8.7
2018-Apr-18 07:00N 40°18' W 071°06'0 0.0 270 / 201006.1 6.2-0.3 8.6
2018-Apr-18 06:00N 40°18' W 071°06'5 4.6 280 / 221005.9 5.7 1.1 8.6
2018-Apr-18 05:00N 40°18' W 071°00'0 0.0 280 / 241006.0 5.3 2.0 8.6
2018-Apr-18 04:00N 40°18' W 071°00'5 4.6 270 / 191005.6 6.1 1.2 8.6
2018-Apr-18 03:00N 40°18' W 071°06'6 6.0 290 / 261005.7 5.2 2.3 8.7
2018-Apr-18 02:00N 40°12' W 071°06'5 4.6 270 / 261005.6 6.3 0.6 8.9
2018-Apr-18 01:00N 40°12' W 071°12'5 4.6 260 / 181004.9 7.4 1.1 8.9
2018-Apr-18 00:00N 40°12' W 071°06'0 0.0 240 / 201004.4 7.6 1.1 8.9
2018-Apr-17 23:00N 40°12' W 071°06'6 6.0 260 / 221003.6 7.5 1.0 8.8
2018-Apr-17 22:00N 40°18' W 071°06'0 0.0 240 / 241003.3 7.3 1.4 8.9
2018-Apr-17 21:00N 40°18' W 071°06'0 0.0 250 / 281003.0 7.5-0.3 8.9
2018-Apr-17 20:00N 40°18' W 071°06'0 0.0 260 / 241002.8 7.3 1.4 8.8
2018-Apr-17 19:00N 40°18' W 071°06'0 0.0 260 / 211003.4 6.8 1.4 8.9
2018-Apr-17 18:00N 40°18' W 071°06'6 6.0 250 / 321003.1 6.6 1.3 8.9
2018-Apr-17 17:00N 40°12' W 071°06'6 6.0 250 / 251003.3 6.6 1.6 8.8
2018-Apr-17 16:00N 40°18' W 071°06'5 4.6 270 / 211003.9 6.8 2.1 9.0
2018-Apr-17 15:00N 40°18' W 071°12'5 4.6 270 / 221003.5 6.9 2.4 9.2
2018-Apr-17 14:00N 40°18' W 071°06'0 0.0 260 / 201003.7 7.2 2.7 9.1
2018-Apr-17 13:00N 40°18' W 071°06'6 6.0 260 / 231003.2 7.3 3.0 8.8
2018-Apr-17 12:00N 40°12' W 071°06'0 0.0 270 / 181002.5 7.7 4.1 8.7
2018-Apr-17 11:00N 40°12' W 071°06'0 0.0 280 / 221002.6 7.5 3.7 9.0
2018-Apr-17 10:00N 40°12' W 071°06'0 0.0 270 / 191002.3 7.6 3.6 8.8
2018-Apr-17 09:00N 40°12' W 071°06'6 6.0 280 / 201001.5 7.9 4.1 8.5
2018-Apr-17 08:00N 40°18' W 071°06'0 0.0 260 / 181002.1 8.3 4.5 8.5
2018-Apr-17 07:00N 40°18' W 071°06'5 4.6 260 / 201002.5 8.3 4.5 8.6
2018-Apr-17 06:00N 40°18' W 071°00'5 4.6 250 / 181002.2 8.8 5.4 8.6
2018-Apr-17 05:00N 40°18' W 071°06'8 7.5 240 / 171002.8 9.5 6.9 8.6
2018-Apr-17 04:00N 40°12' W 071°00'5 4.6 240 / 161002.3 9.9 7.9 8.8
2018-Apr-17 03:00N 40°12' W 071°06'0 0.0 230 / 121002.3 10.1 7.9 8.9
2018-Apr-17 02:00N 40°12' W 071°06'0 0.0 210 / 91002.7 11.0 8.6 9.0
2018-Apr-17 01:00N 40°12' W 071°06'0 0.0 220 / 121002.6 11.7 8.0 9.2
2018-Apr-17 00:00N 40°12' W 071°06'0 0.0 220 / 111001.9 11.5 8.2 8.9
2018-Apr-16 23:00N 40°12' W 071°06'0 0.0 180 / 141002.0 12.1 9.3 8.9
2018-Apr-16 22:00N 40°12' W 071°06'6 6.0 190 / 121002.2 12.010.6 9.3
2018-Apr-16 21:00N 40°18' W 071°06'0 0.0 200 / 131002.0 12.111.2 9.7
2018-Apr-16 20:00N 40°18' W 071°06'0 0.0 140 / 231002.3 14.213.9 9.4
2018-Apr-16 19:00N 40°18' W 071°06'5 4.6 130 / 231004.5 12.111.8 9.5
2018-Apr-16 18:00N 40°18' W 071°00'5 4.6 130 / 261006.1 12.812.3 9.3
2018-Apr-16 17:00N 40°18' W 071°06'0 0.0 130 / 281007.5 12.912.6 9.4
2018-Apr-16 16:00N 40°18' W 071°06'0 0.0 120 / 251008.9 11.811.5 9.5
2018-Apr-16 15:00N 40°18' W 071°06'5 4.6 110 / 261010.3 11.511.2 9.4
2018-Apr-16 14:00N 40°18' W 071°00'0 0.0 110 / 251011.7 10.710.4 9.4
2018-Apr-16 13:00N 40°18' W 071°00'0 0.0 110 / 271013.0 10.310.0 8.9
2018-Apr-16 12:00N 40°18' W 071°00'0 0.0 110 / 251014.1 10.310.0 9.3
2018-Apr-16 11:00N 40°18' W 071°00'0 0.0 110 / 281015.1 9.9 9.6 9.3
2018-Apr-16 10:00N 40°18' W 071°00'5 4.6 100 / 301015.4 9.5 9.2 9.1
2018-Apr-16 09:00N 40°18' W 071°06'0 0.0 100 / 261016.5 9.0 8.5 8.9
2018-Apr-16 08:00N 40°18' W 071°06'0 0.0 090 / 271017.7 8.6 8.2 9.0
2018-Apr-16 07:00N 40°18' W 071°06'0 0.0 090 / 231019.2 8.4 7.6 8.7
2018-Apr-16 06:00N 40°18' W 071°06'5 4.6 080 / 281020.1 8.1 7.2 8.7
2018-Apr-16 05:00N 40°18' W 071°12'0 0.0 080 / 261021.3 7.7 6.6 8.9
2018-Apr-16 04:00N 40°18' W 071°12'0 0.0 080 / 281021.7 7.5 6.4 9.1
2018-Apr-16 03:00N 40°18' W 071°12'0 0.0 080 / 311022.3 7.0 5.9 9.1
2018-Apr-16 02:00N 40°18' W 071°12'5 4.6 070 / 351023.5 6.6 5.7 9.2
2018-Apr-16 01:00N 40°18' W 071°06'0 0.0 070 / 221024.4 6.3 5.1 9.0
2018-Apr-16 00:00N 40°18' W 071°06'0 0.0 060 / 281024.5 6.1 4.9 8.6
2018-Apr-15 23:00N 40°18' W 071°06'0 0.0 060 / 301024.8 5.7 4.7 8.7
2018-Apr-15 22:00N 40°18' W 071°06'0 0.0 070 / 301025.0 5.8 4.8 8.8
2018-Apr-15 21:00N 40°18' W 071°06'0 0.0 070 / 281024.9 5.5 4.3 9.0
2018-Apr-15 20:00N 40°18' W 071°06'6 6.0 060 / 301025.2 5.3 4.3 9.1
2018-Apr-15 19:00N 40°12' W 071°06'6 6.0 060 / 271025.7 5.1 3.9 9.1
2018-Apr-15 18:00N 40°18' W 071°06'5 4.6 060 / 321027.0 5.0 3.7 9.0
2018-Apr-15 17:00N 40°18' W 071°00'0 0.0 050 / 311026.8 5.0 3.0 8.7
2018-Apr-15 16:00N 40°18' W 071°00'5 4.6 060 / 321026.2 5.0 3.0 8.8
2018-Apr-15 15:00N 40°18' W 071°06'0 0.0 050 / 321026.4 5.2 2.9 8.9
2018-Apr-15 14:00N 40°18' W 071°06'0 0.0 060 / 271026.0 5.5 2.5 9.1
2018-Apr-15 13:00N 40°18' W 071°06'0 0.0 070 / 291025.7 6.1 3.1 9.1
2018-Apr-15 12:00N 40°18' W 071°06'0 0.0 070 / 331025.1 5.8 2.4 9.1
2018-Apr-15 11:00N 40°18' W 071°06'0 0.0 050 / 351024.2 5.8 2.6 9.2
2018-Apr-15 10:00N 40°18' W 071°06'0 0.0 070 / 321023.8 5.6 3.4 9.1
2018-Apr-15 09:00N 40°18' W 071°06'0 0.0 070 / 271023.4 5.8 4.8 9.2
2018-Apr-15 08:00N 40°18' W 071°06'0 0.0 060 / 301023.1 5.9 4.7 9.1
2018-Apr-15 07:00N 40°18' W 071°06'0 0.0 070 / 241022.9 6.3 4.9 9.3
2018-Apr-15 06:00N 40°18' W 071°06'0 0.0 070 / 251022.9 6.7 5.0 9.4
2018-Apr-15 05:00N 40°18' W 071°06'0 0.0 080 / 291022.4 6.5 5.3 9.4
2018-Apr-15 04:00N 40°18' W 071°06'0 0.0 080 / 281022.2 6.9 6.0 9.3
2018-Apr-15 03:00N 40°18' W 071°06'0 0.0 070 / 281023.1 6.9 5.7 9.3
2018-Apr-15 02:00N 40°18' W 071°06'0 0.0 080 / 271022.5 7.1 5.4 9.3
2018-Apr-15 01:00N 40°18' W 071°06'0 0.0 070 / 241021.8 7.3 5.4 9.4
2018-Apr-15 00:00N 40°18' W 071°06'6 6.0 060 / 251020.6 8.0 6.5 9.1
2018-Apr-14 23:00N 40°24' W 071°06'8 7.5 060 / 231019.2 7.4 6.8 7.3
2018-Apr-14 22:00N 40°30' W 071°12'1212.0 070 / 241018.7 7.5 6.6 7.2
2018-Apr-14 21:00N 40°42' W 071°12'6 6.0 070 / 201018.0 7.6 6.4 7.2
2018-Apr-14 20:00N 40°48' W 071°12'8 7.5 060 / 191017.8 8.2 6.7 7.0
2018-Apr-14 19:00N 40°54' W 071°18'6 6.0 060 / 211017.3 8.5 6.1 7.4
2018-Apr-14 18:00N 41°00' W 071°18'1212.0 070 / 221017.6 9.5 7.1 7.6
2018-Apr-14 17:00N 41°12' W 071°18'8 7.5 060 / 181016.7 9.4 6.7 7.7
2018-Apr-14 16:00N 41°18' W 071°24'6 6.0 090 / 121016.8 9.6 7.9 7.9
2018-Apr-14 15:00N 41°24' W 071°24'4 5.8 010 / 111016.1 12.2 9.0 7.6
2018-Apr-14 14:16N 41°28' W 071°25'2 6.8
2018-Apr-14 14:00N 41°30' W 071°24'0 0.0 010 / 161015.7 10.5 6.7 7.9
2018-Apr-14 13:00N 41°30' W 071°24'0 0.0 1014.8 9.7 7.5 7.9
2018-Apr-14 12:00N 41°30' W 071°24'0 0.0 010 / 41014.3 8.1 7.0 7.7
2018-Apr-14 11:00N 41°30' W 071°24'0 0.0 190 / 21013.1 8.6 7.7 7.8
2018-Apr-14 10:00N 41°30' W 071°24'0 0.0 210 / 41011.9 8.4 7.3 7.9
2018-Apr-14 09:00N 41°30' W 071°24'0 0.0 170 / 21011.7 9.7 8.0 8.0
2018-Apr-14 08:00N 41°30' W 071°24'0 0.0 270 / 31011.4 10.5 8.6 8.0
2018-Apr-14 07:00N 41°30' W 071°24'0 0.0 230 / 101011.0 11.0 8.9 7.9
2018-Apr-14 06:00N 41°30' W 071°24'0 0.0 220 / 111010.8 11.2 8.9 7.9
2018-Apr-14 05:00N 41°30' W 071°24'0 0.0 200 / 51012.0 10.5 8.4 7.9
2018-Apr-14 04:00N 41°30' W 071°24'0 0.0 210 / 81012.5 10.2 8.1 7.8
2018-Apr-14 03:00N 41°30' W 071°24'0 0.0 190 / 61012.9 7.5 6.3 7.8
2018-Apr-14 02:00N 41°30' W 071°24'0 0.0 180 / 41013.3 8.4 6.5 7.6
2018-Apr-14 01:00N 41°30' W 071°24'0 0.0 200 / 11012.9 8.1 6.4 7.4
2018-Apr-14 00:00N 41°30' W 071°24'0 0.0 180 / 71012.9 8.7 6.5 7.7
2018-Apr-13 23:00N 41°30' W 071°24'0 0.0 190 / 71012.5 10.4 6.5 7.5
2018-Apr-13 22:00N 41°30' W 071°24'0 0.0 180 / 101012.3 9.5 5.3 7.7
2018-Apr-13 21:00N 41°30' W 071°24'0 0.0 160 / 141012.0
2018-Apr-13 20:00N 41°30' W 071°24'0 0.0 200 / 81012.8 13.5 6.7 7.8
2018-Apr-13 19:00N 41°30' W 071°24'0 0.0 180 / 101012.7 9.7 5.3 7.9
2018-Apr-13 18:00N 41°30' W 071°24'0 0.0 210 / 71013.2 11.7 6.8 7.9
2018-Apr-13 17:00N 41°30' W 071°24'0 0.0 210 / 101012.8 10.5 6.6 7.7
2018-Apr-13 16:00N 41°30' W 071°24'0 0.0 190 / 91012.9 11.6 6.7 7.5
2018-Apr-13 15:00N 41°30' W 071°24'0 0.0 180 / 91013.0 9.8 5.6 7.4
2018-Apr-13 14:00N 41°30' W 071°24'0 0.0 180 / 71013.1 9.2 5.4 7.4
2018-Apr-13 13:00N 41°30' W 071°24'0 0.0 200 / 41012.5 10.7 5.8 7.2
2018-Apr-13 12:00N 41°30' W 071°24'0 0.0 190 / 91012.0 9.4 4.8 7.1
2018-Apr-13 11:00N 41°30' W 071°24'0 0.0 190 / 81011.1 11.7 5.1 7.2
2018-Apr-13 10:00N 41°30' W 071°24'0 0.0 210 / 61010.2 11.6 5.3 7.2
2018-Apr-13 09:00N 41°30' W 071°24'   200 / 81009.4 11.8 5.2 7.5
Track history (hours):
 
Tides and Currents Weather Stations Pressure Air Temp Water Temp Dewpoint Dewpoint Depression Visibility Wind Speed Wind Dir Waves Ship Positions

Oceanographic research ship Endeavor (USA)

Detailed information on ship capabilities available from University of Delaware's Ocean Information Center.

Owner: UNIVERSITY OF RHODE ISLAND, Narragansett, RI. More information available from US FCC via Universal Licensing System and Coast Guard Vessel Documentation Center.

Last reported at 2018-Apr-23 09:00 UTC. Time now 2018-Apr-23 09:47 UTC.
Position N 41°30' W 071°24'.

Type: Ship. MMSI: 303471000.

Wind at 6 knots

Barometer 1030.0 mb
Air temperature 8.7 ° C
Dewpoint -8.3 ° C
Water temperature 8.8 ° C

Date/timePositionNaut miles runAvg speedWind from/ knotsBaromVisibWave heightAir tempDewpointWater temp
2018-Apr-23 09:00N 41°30' W 071°24'0 0.0 1030.0 8.7-8.3 8.8
2018-Apr-23 08:00N 41°30' W 071°24'0 0.0 250 / 11029.5 8.7-8.7 8.8
2018-Apr-23 07:00N 41°30' W 071°24'0 0.0 300 1029.0 7.5-6.9 9.0
2018-Apr-23 06:00N 41°30' W 071°24'0 0.0 1028.7 7.1-3.4 9.2
2018-Apr-23 05:00N 41°30' W 071°24'0 0.0 260 1028.4 8.3-2.3 9.2
2018-Apr-23 04:00N 41°30' W 071°24'0 0.0 270 / 91028.2 9.3-3.3 9.4
2018-Apr-23 03:00N 41°30' W 071°24'0 0.0 270 / 81028.0 10.0-3.0 9.5
2018-Apr-23 02:00N 41°30' W 071°24'0 0.0 270 / 41027.9 9.8-2.2 9.6
2018-Apr-23 01:00N 41°30' W 071°24'0 0.0 250 / 51027.1 9.6-0.610.0
2018-Apr-23 00:00N 41°30' W 071°24'0 0.0 220 / 81026.4 9.9-0.3 9.8
2018-Apr-22 23:00N 41°30' W 071°24'0 0.0 200 / 91025.9 11.5-1.310.0
2018-Apr-22 22:00N 41°30' W 071°24'0 0.0 210 / 71026.1 11.5-2.0 9.9
2018-Apr-22 21:00N 41°30' W 071°24'0 0.0 180 / 121026.2 9.6 2.4 9.8
2018-Apr-22 20:00N 41°30' W 071°24'0 0.0 180 / 161026.1 10.8-1.8 9.2
2018-Apr-22 19:00N 41°30' W 071°24'0 0.0 170 / 141026.5 11.6-2.1 9.3
2018-Apr-22 18:00N 41°30' W 071°24'0 0.0 190 / 131026.9 11.0-3.9 9.3
2018-Apr-22 17:00N 41°30' W 071°24'0 0.0 170 / 131027.2 9.6-2.7 9.8
2018-Apr-22 16:00N 41°30' W 071°24'0 0.0 050 / 61027.4 15.0-7.7 9.4
2018-Apr-22 15:00N 41°30' W 071°24'0 0.0 020 / 41027.7 11.9-7.4 9.0
2018-Apr-22 14:00N 41°30' W 071°24'0 0.0 010 / 101027.8 10.4-5.5 8.8
2018-Apr-22 13:00N 41°30' W 071°24'1 1.7 340 / 101028.1 10.9-9.4 8.6
2018-Apr-22 12:12N 41°29' W 071°25'523.1
2018-Apr-22 12:00N 41°24' W 071°24'5 4.5 320 / 31027.9 7.7-5.2 7.7
2018-Apr-22 11:00N 41°24' W 071°18'0 0.0 310 / 71027.4 7.0-2.7 7.4
2018-Apr-22 10:00N 41°24' W 071°18'0 0.0 320 / 51027.0 7.2-3.5 7.5
2018-Apr-22 09:00N 41°24' W 071°18'0 0.0 330 / 81026.6 7.4-4.3 7.6
2018-Apr-22 08:00N 41°24' W 071°18'6 6.0 350 / 71026.5 7.8 0.1 7.9
2018-Apr-22 07:00N 41°18' W 071°18'0 0.0 350 / 101026.0 8.2-0.3 7.9
2018-Apr-22 06:00N 41°18' W 071°18'6 6.0 340 / 121025.8 8.4-0.6 7.6
2018-Apr-22 05:00N 41°12' W 071°18'8 7.5 300 / 121025.5 8.6 0.8 7.5
2018-Apr-22 04:00N 41°06' W 071°12'6 6.0 260 / 171025.3 8.2 4.8 7.3
2018-Apr-22 03:00N 41°00' W 071°12'6 6.0 250 / 171025.3 8.2 4.8 7.2
2018-Apr-22 02:00N 40°54' W 071°12'0 0.0 250 / 181025.4 8.3 4.1 7.1
2018-Apr-22 01:00N 40°54' W 071°12'6 6.0 240 / 181025.1 8.4 5.0 7.0
2018-Apr-22 00:00N 40°48' W 071°12'1212.0 230 / 171024.6 8.9 4.3 7.2
2018-Apr-21 23:00N 40°36' W 071°12'8 7.5 230 / 161024.2 9.6 4.4 7.5
2018-Apr-21 22:00N 40°30' W 071°06'6 6.0 240 / 161024.4 9.5 3.5 8.1
2018-Apr-21 21:00N 40°24' W 071°06'1212.0 250 / 141025.1 9.8 3.3 8.8
2018-Apr-21 20:00N 40°12' W 071°06'0 0.0 270 / 141025.5 8.8 3.1 9.1
2018-Apr-21 19:00N 40°12' W 071°06'0 0.0 270 / 121026.0 8.4 2.5 9.2
2018-Apr-21 18:00N 40°12' W 071°06'0 0.0 290 / 141026.6 7.3 2.0 9.3
2018-Apr-21 17:00N 40°12' W 071°06'0 0.0 290 / 161026.8 7.3 1.6 9.3
2018-Apr-21 16:00N 40°12' W 071°06'0 0.0 300 / 141027.4 7.2 2.1 9.4
2018-Apr-21 15:00N 40°12' W 071°06'0 0.0 290 / 221027.5 7.5 2.8 9.2
2018-Apr-21 14:00N 40°12' W 071°06'0 0.0 310 / 141027.3 7.3 2.4 9.2
2018-Apr-21 13:00N 40°12' W 071°06'0 0.0 310 / 161027.1 8.0 2.7 9.2
2018-Apr-21 12:00N 40°12' W 071°06'0 0.0 320 / 151027.3 8.0 1.8 9.0
2018-Apr-21 11:00N 40°12' W 071°06'0 0.0 310 / 171026.8 7.2 1.4 9.1
2018-Apr-21 10:00N 40°12' W 071°06'0 0.0 320 / 191026.2 7.5 0.7 9.1
2018-Apr-21 09:00N 40°12' W 071°06'0 0.0 320 / 161026.0 7.0 1.3 9.1
2018-Apr-21 08:00N 40°12' W 071°06'0 0.0 330 / 141025.6 8.6 3.1 9.1
2018-Apr-21 07:00N 40°12' W 071°06'0 0.0 340 / 131025.3 7.1 1.8 9.2
2018-Apr-21 06:00N 40°12' W 071°06'0 0.0 340 / 181025.2 7.2 1.1 9.2
2018-Apr-21 05:00N 40°12' W 071°06'0 0.0 340 / 201025.1 7.3-0.2 9.3
2018-Apr-21 04:00N 40°12' W 071°06'0 0.0 330 / 191024.8 7.6 1.5 9.2
2018-Apr-21 03:00N 40°12' W 071°06'0 0.0 320 / 261024.0 9.0 1.9 9.4
2018-Apr-21 02:00N 40°12' W 071°06'0 0.0 300 / 201023.3 9.7 3.2 9.2
2018-Apr-21 01:00N 40°12' W 071°06'0 0.0 280 / 171022.9 8.9 2.8 9.5
2018-Apr-21 00:00N 40°12' W 071°06'0 0.0 270 / 161022.1 7.9 2.7 9.4
2018-Apr-20 23:00N 40°12' W 071°06'0 0.0 270 / 191021.1 7.8 2.3 9.4
2018-Apr-20 22:00N 40°12' W 071°06'0 0.0 280 / 171021.0 7.5 1.6 9.4
2018-Apr-20 21:00N 40°12' W 071°06'0 0.0 270 / 131020.7 7.6 0.3 9.2
2018-Apr-20 20:00N 40°12' W 071°06'0 0.0 280 / 241019.9 7.1-1.5 9.1
2018-Apr-20 19:00N 40°12' W 071°06'0 0.0 290 / 231019.6 6.5-1.2 9.2
2018-Apr-20 18:00N 40°12' W 071°06'0 0.0 300 / 181019.5 6.0-0.5 9.3
2018-Apr-20 17:00N 40°12' W 071°06'6 6.0 280 / 291018.7 5.4-1.9 9.1
2018-Apr-20 16:00N 40°18' W 071°06'6 6.0 290 / 241018.5 5.0-1.4 9.1
2018-Apr-20 15:00N 40°12' W 071°06'0 0.0 310 / 201018.3 4.7-2.3 9.0
2018-Apr-20 14:00N 40°12' W 071°06'0 0.0 320 / 131018.0 4.7-2.0 8.8
2018-Apr-20 13:00N 40°12' W 071°06'0 0.0 300 / 221017.3 4.5-2.8 8.7
2018-Apr-20 12:00N 40°12' W 071°06'0 0.0 300 / 241016.7 4.6-3.5 8.7
2018-Apr-20 11:00N 40°12' W 071°06'0 0.0 320 / 281015.6 4.9-2.6 8.6
2018-Apr-20 10:00N 40°12' W 071°06'0 0.0 310 / 261015.0 4.8-3.0 8.7
2018-Apr-20 09:00N 40°12' W 071°06'0 0.0 300 / 241014.5 5.4-1.9 8.8
2018-Apr-20 08:00N 40°12' W 071°06'6 6.0 300 / 271013.7 5.4-2.6 8.9
2018-Apr-20 07:00N 40°18' W 071°06'0 0.0 300 / 301013.3 5.7-2.9 8.8
2018-Apr-20 06:00N 40°18' W 071°06'6 6.0 310 / 231012.8 6.1-0.6 8.9
2018-Apr-20 05:00N 40°12' W 071°06'6 6.0 310 / 281012.7 6.2-1.2 9.1
2018-Apr-20 04:00N 40°18' W 071°06'0 0.0 300 / 271011.8 6.6-0.1 8.8
2018-Apr-20 03:00N 40°18' W 071°06'0 0.0 300 / 241011.3 6.8 1.7 9.1
2018-Apr-20 02:00N 40°18' W 071°06'0 0.0 290 / 201011.1 7.0 4.1 9.0
2018-Apr-20 01:00N 40°18' W 071°06'6 6.0 290 / 211010.2 7.2 4.2 8.9
2018-Apr-20 00:00N 40°12' W 071°06'0 0.0 300 / 161009.1 7.0 4.3 9.0
2018-Apr-19 23:00N 40°12' W 071°06'6 6.0 300 / 121008.4 6.6 4.8 9.1
2018-Apr-19 22:00N 40°18' W 071°06'0 0.0 310 / 151007.3 6.6 4.9 8.9
2018-Apr-19 21:00N 40°18' W 071°06'0 0.0 330 / 131006.5 6.9 5.4 8.8
2018-Apr-19 20:00N 40°18' W 071°06'0 0.0 020 / 111004.9 6.5 4.8 8.7
2018-Apr-19 19:00N 40°18' W 071°06'6 6.0 040 / 131004.0 7.0 5.0 8.7
2018-Apr-19 18:00N 40°12' W 071°06'0 0.0 350 / 231004.9 6.8 5.0 8.8
2018-Apr-19 17:00N 40°12' W 071°06'6 6.0 050 / 151002.7 7.6 5.2 8.8
2018-Apr-19 16:00N 40°18' W 071°06'0 0.0 060 / 181002.0 7.6 5.1 8.8
2018-Apr-19 15:00N 40°18' W 071°06'0 0.0 050 / 181002.1 7.6 4.9 8.8
2018-Apr-19 14:00N 40°18' W 071°06'0 0.0 040 / 201003.4 7.6 5.1 8.8
2018-Apr-19 13:00N 40°18' W 071°06'6 6.0 030 / 141004.2 8.1 5.6 8.8
2018-Apr-19 12:00N 40°12' W 071°06'0 0.0 040 / 121003.9 8.9 6.7 8.8
2018-Apr-19 11:00N 40°12' W 071°06'0 0.0 090 / 141004.0 8.7 4.9 8.8
2018-Apr-19 10:00N 40°12' W 071°06'0 0.0 070 / 81005.3 8.3 5.2 8.8
2018-Apr-19 09:00N 40°12' W 071°06'6 6.0 140 / 101006.5 8.2 5.0 8.8
2018-Apr-19 08:00N 40°18' W 071°06'0 0.0 190 / 31007.5 8.4 4.2 8.7
2018-Apr-19 07:00N 40°18' W 071°06'0 0.0 210 / 81008.3 8.0 4.8 8.7
2018-Apr-19 06:00N 40°18' W 071°06'0 0.0 210 / 131008.6 8.5 4.9 8.7
2018-Apr-19 05:00N 40°18' W 071°06'0 0.0 220 / 131008.8 7.8 4.0 8.8
2018-Apr-19 04:00N 40°18' W 071°06'0 0.0 220 / 161009.3 7.7 3.6 8.7
2018-Apr-19 03:00N 40°18' W 071°06'0 0.0 230 / 201009.3 7.6 2.9 8.6
2018-Apr-19 02:00N 40°18' W 071°06'0 0.0 230 / 191009.6 7.5 3.3 8.7
2018-Apr-19 01:00N 40°18' W 071°06'6 6.0 230 / 161009.3 7.3 3.0 8.8
2018-Apr-19 00:00N 40°12' W 071°06'8 7.5 240 / 201009.0 7.6 2.5 8.8
2018-Apr-18 23:00N 40°18' W 071°00'8 7.5 250 / 171009.0 7.5 2.0 8.8
2018-Apr-18 22:00N 40°12' W 071°06'0 0.0 250 / 121009.1 7.2 1.3 8.7
2018-Apr-18 21:00N 40°12' W 071°06'0 0.0 260 / 181009.2 7.2 1.5 8.7
2018-Apr-18 20:00N 40°12' W 071°06'0 0.0 270 / 231009.1 6.9 0.2 8.6
2018-Apr-18 19:00N 40°12' W 071°06'0 0.0 270 / 221009.1 6.6-0.2 8.5
2018-Apr-18 18:00N 40°12' W 071°06'0 0.0 270 / 201009.5 6.3 0.9 8.6
2018-Apr-18 17:00N 40°12' W 071°06'6 6.0 250 / 271008.8 6.1-0.7 8.6
2018-Apr-18 16:00N 40°18' W 071°06'0 0.0 260 / 241008.4 5.9-1.5 8.5
2018-Apr-18 15:00N 40°18' W 071°06'0 0.0 270 / 261008.9 5.7-1.9 8.4
2018-Apr-18 14:00N 40°18' W 071°06'0 0.0 280 / 251008.5 5.5-3.6 8.5
2018-Apr-18 13:00N 40°18' W 071°06'0 0.0 280 / 231008.2 5.3-2.0 8.5
2018-Apr-18 12:00N 40°18' W 071°06'0 0.0 280 / 231008.3 5.1-4.3 8.5
2018-Apr-18 11:00N 40°18' W 071°06'0 0.0 280 / 161007.8 5.1-4.3 8.5
2018-Apr-18 10:00N 40°18' W 071°06'0 0.0 300 / 211007.1 5.3-2.5 8.7
2018-Apr-18 09:00N 40°18' W 071°06'0 0.0 300 / 221006.6 6.0-1.4 8.7
2018-Apr-18 08:00N 40°18' W 071°06'0 0.0 280 / 221006.3 6.2-0.4 8.7
2018-Apr-18 07:00N 40°18' W 071°06'0 0.0 270 / 201006.1 6.2-0.3 8.6
2018-Apr-18 06:00N 40°18' W 071°06'5 4.6 280 / 221005.9 5.7 1.1 8.6
2018-Apr-18 05:00N 40°18' W 071°00'0 0.0 280 / 241006.0 5.3 2.0 8.6
2018-Apr-18 04:00N 40°18' W 071°00'5 4.6 270 / 191005.6 6.1 1.2 8.6
2018-Apr-18 03:00N 40°18' W 071°06'6 6.0 290 / 261005.7 5.2 2.3 8.7
2018-Apr-18 02:00N 40°12' W 071°06'5 4.6 270 / 261005.6 6.3 0.6 8.9
2018-Apr-18 01:00N 40°12' W 071°12'5 4.6 260 / 181004.9 7.4 1.1 8.9
2018-Apr-18 00:00N 40°12' W 071°06'0 0.0 240 / 201004.4 7.6 1.1 8.9
2018-Apr-17 23:00N 40°12' W 071°06'6 6.0 260 / 221003.6 7.5 1.0 8.8
2018-Apr-17 22:00N 40°18' W 071°06'0 0.0 240 / 241003.3 7.3 1.4 8.9
2018-Apr-17 21:00N 40°18' W 071°06'0 0.0 250 / 281003.0 7.5-0.3 8.9
2018-Apr-17 20:00N 40°18' W 071°06'0 0.0 260 / 241002.8 7.3 1.4 8.8
2018-Apr-17 19:00N 40°18' W 071°06'0 0.0 260 / 211003.4 6.8 1.4 8.9
2018-Apr-17 18:00N 40°18' W 071°06'6 6.0 250 / 321003.1 6.6 1.3 8.9
2018-Apr-17 17:00N 40°12' W 071°06'6 6.0 250 / 251003.3 6.6 1.6 8.8
2018-Apr-17 16:00N 40°18' W 071°06'5 4.6 270 / 211003.9 6.8 2.1 9.0
2018-Apr-17 15:00N 40°18' W 071°12'5 4.6 270 / 221003.5 6.9 2.4 9.2
2018-Apr-17 14:00N 40°18' W 071°06'0 0.0 260 / 201003.7 7.2 2.7 9.1
2018-Apr-17 13:00N 40°18' W 071°06'6 6.0 260 / 231003.2 7.3 3.0 8.8
2018-Apr-17 12:00N 40°12' W 071°06'0 0.0 270 / 181002.5 7.7 4.1 8.7
2018-Apr-17 11:00N 40°12' W 071°06'0 0.0 280 / 221002.6 7.5 3.7 9.0
2018-Apr-17 10:00N 40°12' W 071°06'0 0.0 270 / 191002.3 7.6 3.6 8.8
2018-Apr-17 09:00N 40°12' W 071°06'6 6.0 280 / 201001.5 7.9 4.1 8.5
2018-Apr-17 08:00N 40°18' W 071°06'0 0.0 260 / 181002.1 8.3 4.5 8.5
2018-Apr-17 07:00N 40°18' W 071°06'5 4.6 260 / 201002.5 8.3 4.5 8.6
2018-Apr-17 06:00N 40°18' W 071°00'5 4.6 250 / 181002.2 8.8 5.4 8.6
2018-Apr-17 05:00N 40°18' W 071°06'8 7.5 240 / 171002.8 9.5 6.9 8.6
2018-Apr-17 04:00N 40°12' W 071°00'5 4.6 240 / 161002.3 9.9 7.9 8.8
2018-Apr-17 03:00N 40°12' W 071°06'0 0.0 230 / 121002.3 10.1 7.9 8.9
2018-Apr-17 02:00N 40°12' W 071°06'0 0.0 210 / 91002.7 11.0 8.6 9.0
2018-Apr-17 01:00N 40°12' W 071°06'0 0.0 220 / 121002.6 11.7 8.0 9.2
2018-Apr-17 00:00N 40°12' W 071°06'0 0.0 220 / 111001.9 11.5 8.2 8.9
2018-Apr-16 23:00N 40°12' W 071°06'0 0.0 180 / 141002.0 12.1 9.3 8.9
2018-Apr-16 22:00N 40°12' W 071°06'6 6.0 190 / 121002.2 12.010.6 9.3
2018-Apr-16 21:00N 40°18' W 071°06'0 0.0 200 / 131002.0 12.111.2 9.7
2018-Apr-16 20:00N 40°18' W 071°06'0 0.0 140 / 231002.3 14.213.9 9.4
2018-Apr-16 19:00N 40°18' W 071°06'5 4.6 130 / 231004.5 12.111.8 9.5
2018-Apr-16 18:00N 40°18' W 071°00'5 4.6 130 / 261006.1 12.812.3 9.3
2018-Apr-16 17:00N 40°18' W 071°06'0 0.0 130 / 281007.5 12.912.6 9.4
2018-Apr-16 16:00N 40°18' W 071°06'0 0.0 120 / 251008.9 11.811.5 9.5
2018-Apr-16 15:00N 40°18' W 071°06'5 4.6 110 / 261010.3 11.511.2 9.4
2018-Apr-16 14:00N 40°18' W 071°00'0 0.0 110 / 251011.7 10.710.4 9.4
2018-Apr-16 13:00N 40°18' W 071°00'0 0.0 110 / 271013.0 10.310.0 8.9
2018-Apr-16 12:00N 40°18' W 071°00'0 0.0 110 / 251014.1 10.310.0 9.3
2018-Apr-16 11:00N 40°18' W 071°00'0 0.0 110 / 281015.1 9.9 9.6 9.3
2018-Apr-16 10:00N 40°18' W 071°00'5 4.6 100 / 301015.4 9.5 9.2 9.1
2018-Apr-16 09:00N 40°18' W 071°06'0 0.0 100 / 261016.5 9.0 8.5 8.9
2018-Apr-16 08:00N 40°18' W 071°06'0 0.0 090 / 271017.7 8.6 8.2 9.0
2018-Apr-16 07:00N 40°18' W 071°06'0 0.0 090 / 231019.2 8.4 7.6 8.7
2018-Apr-16 06:00N 40°18' W 071°06'5 4.6 080 / 281020.1 8.1 7.2 8.7
2018-Apr-16 05:00N 40°18' W 071°12'0 0.0 080 / 261021.3 7.7 6.6 8.9
2018-Apr-16 04:00N 40°18' W 071°12'0 0.0 080 / 281021.7 7.5 6.4 9.1
2018-Apr-16 03:00N 40°18' W 071°12'0 0.0 080 / 311022.3 7.0 5.9 9.1
2018-Apr-16 02:00N 40°18' W 071°12'5 4.6 070 / 351023.5 6.6 5.7 9.2
2018-Apr-16 01:00N 40°18' W 071°06'0 0.0 070 / 221024.4 6.3 5.1 9.0
2018-Apr-16 00:00N 40°18' W 071°06'0 0.0 060 / 281024.5 6.1 4.9 8.6
2018-Apr-15 23:00N 40°18' W 071°06'0 0.0 060 / 301024.8 5.7 4.7 8.7
2018-Apr-15 22:00N 40°18' W 071°06'0 0.0 070 / 301025.0 5.8 4.8 8.8
2018-Apr-15 21:00N 40°18' W 071°06'0 0.0 070 / 281024.9 5.5 4.3 9.0
2018-Apr-15 20:00N 40°18' W 071°06'6 6.0 060 / 301025.2 5.3 4.3 9.1
2018-Apr-15 19:00N 40°12' W 071°06'6 6.0 060 / 271025.7 5.1 3.9 9.1
2018-Apr-15 18:00N 40°18' W 071°06'5 4.6 060 / 321027.0 5.0 3.7 9.0
2018-Apr-15 17:00N 40°18' W 071°00'0 0.0 050 / 311026.8 5.0 3.0 8.7
2018-Apr-15 16:00N 40°18' W 071°00'5 4.6 060 / 321026.2 5.0 3.0 8.8
2018-Apr-15 15:00N 40°18' W 071°06'0 0.0 050 / 321026.4 5.2 2.9 8.9
2018-Apr-15 14:00N 40°18' W 071°06'0 0.0 060 / 271026.0 5.5 2.5 9.1
2018-Apr-15 13:00N 40°18' W 071°06'0 0.0 070 / 291025.7 6.1 3.1 9.1
2018-Apr-15 12:00N 40°18' W 071°06'0 0.0 070 / 331025.1 5.8 2.4 9.1
2018-Apr-15 11:00N 40°18' W 071°06'0 0.0 050 / 351024.2 5.8 2.6 9.2
2018-Apr-15 10:00N 40°18' W 071°06'0 0.0 070 / 321023.8 5.6 3.4 9.1
2018-Apr-15 09:00N 40°18' W 071°06'0 0.0 070 / 271023.4 5.8 4.8 9.2
2018-Apr-15 08:00N 40°18' W 071°06'0 0.0 060 / 301023.1 5.9 4.7 9.1
2018-Apr-15 07:00N 40°18' W 071°06'0 0.0 070 / 241022.9 6.3 4.9 9.3
2018-Apr-15 06:00N 40°18' W 071°06'0 0.0 070 / 251022.9 6.7 5.0 9.4
2018-Apr-15 05:00N 40°18' W 071°06'0 0.0 080 / 291022.4 6.5 5.3 9.4
2018-Apr-15 04:00N 40°18' W 071°06'0 0.0 080 / 281022.2 6.9 6.0 9.3
2018-Apr-15 03:00N 40°18' W 071°06'0 0.0 070 / 281023.1 6.9 5.7 9.3
2018-Apr-15 02:00N 40°18' W 071°06'0 0.0 080 / 271022.5 7.1 5.4 9.3
2018-Apr-15 01:00N 40°18' W 071°06'0 0.0 070 / 241021.8 7.3 5.4 9.4
2018-Apr-15 00:00N 40°18' W 071°06'6 6.0 060 / 251020.6 8.0 6.5 9.1
2018-Apr-14 23:00N 40°24' W 071°06'8 7.5 060 / 231019.2 7.4 6.8 7.3
2018-Apr-14 22:00N 40°30' W 071°12'1212.0 070 / 241018.7 7.5 6.6 7.2
2018-Apr-14 21:00N 40°42' W 071°12'6 6.0 070 / 201018.0 7.6 6.4 7.2
2018-Apr-14 20:00N 40°48' W 071°12'8 7.5 060 / 191017.8 8.2 6.7 7.0
2018-Apr-14 19:00N 40°54' W 071°18'6 6.0 060 / 211017.3 8.5 6.1 7.4
2018-Apr-14 18:00N 41°00' W 071°18'1212.0 070 / 221017.6 9.5 7.1 7.6
2018-Apr-14 17:00N 41°12' W 071°18'8 7.5 060 / 181016.7 9.4 6.7 7.7
2018-Apr-14 16:00N 41°18' W 071°24'6 6.0 090 / 121016.8 9.6 7.9 7.9
2018-Apr-14 15:00N 41°24' W 071°24'4 5.8 010 / 111016.1 12.2 9.0 7.6
2018-Apr-14 14:16N 41°28' W 071°25'2 6.8
2018-Apr-14 14:00N 41°30' W 071°24'0 0.0 010 / 161015.7 10.5 6.7 7.9
2018-Apr-14 13:00N 41°30' W 071°24'0 0.0 1014.8 9.7 7.5 7.9
2018-Apr-14 12:00N 41°30' W 071°24'0 0.0 010 / 41014.3 8.1 7.0 7.7
2018-Apr-14 11:00N 41°30' W 071°24'0 0.0 190 / 21013.1 8.6 7.7 7.8
2018-Apr-14 10:00N 41°30' W 071°24'0 0.0 210 / 41011.9 8.4 7.3 7.9
2018-Apr-14 09:00N 41°30' W 071°24'0 0.0 170 / 21011.7 9.7 8.0 8.0
2018-Apr-14 08:00N 41°30' W 071°24'0 0.0 270 / 31011.4 10.5 8.6 8.0
2018-Apr-14 07:00N 41°30' W 071°24'0 0.0 230 / 101011.0 11.0 8.9 7.9
2018-Apr-14 06:00N 41°30' W 071°24'0 0.0 220 / 111010.8 11.2 8.9 7.9
2018-Apr-14 05:00N 41°30' W 071°24'0 0.0 200 / 51012.0 10.5 8.4 7.9
2018-Apr-14 04:00N 41°30' W 071°24'0 0.0 210 / 81012.5 10.2 8.1 7.8
2018-Apr-14 03:00N 41°30' W 071°24'0 0.0 190 / 61012.9 7.5 6.3 7.8
2018-Apr-14 02:00N 41°30' W 071°24'0 0.0 180 / 41013.3 8.4 6.5 7.6
2018-Apr-14 01:00N 41°30' W 071°24'0 0.0 200 / 11012.9 8.1 6.4 7.4
2018-Apr-14 00:00N 41°30' W 071°24'0 0.0 180 / 71012.9 8.7 6.5 7.7
2018-Apr-13 23:00N 41°30' W 071°24'0 0.0 190 / 71012.5 10.4 6.5 7.5
2018-Apr-13 22:00N 41°30' W 071°24'0 0.0 180 / 101012.3 9.5 5.3 7.7
2018-Apr-13 21:00N 41°30' W 071°24'0 0.0 160 / 141012.0
2018-Apr-13 20:00N 41°30' W 071°24'0 0.0 200 / 81012.8 13.5 6.7 7.8
2018-Apr-13 19:00N 41°30' W 071°24'0 0.0 180 / 101012.7 9.7 5.3 7.9
2018-Apr-13 18:00N 41°30' W 071°24'0 0.0 210 / 71013.2 11.7 6.8 7.9
2018-Apr-13 17:00N 41°30' W 071°24'0 0.0 210 / 101012.8 10.5 6.6 7.7
2018-Apr-13 16:00N 41°30' W 071°24'0 0.0 190 / 91012.9 11.6 6.7 7.5
2018-Apr-13 15:00N 41°30' W 071°24'0 0.0 180 / 91013.0 9.8 5.6 7.4
2018-Apr-13 14:00N 41°30' W 071°24'0 0.0 180 / 71013.1 9.2 5.4 7.4
2018-Apr-13 13:00N 41°30' W 071°24'0 0.0 200 / 41012.5 10.7 5.8 7.2
2018-Apr-13 12:00N 41°30' W 071°24'0 0.0 190 / 91012.0 9.4 4.8 7.1
2018-Apr-13 11:00N 41°30' W 071°24'0 0.0 190 / 81011.1 11.7 5.1 7.2
2018-Apr-13 10:00N 41°30' W 071°24'0 0.0 210 / 61010.2 11.6 5.3 7.2
2018-Apr-13 09:00N 41°30' W 071°24'   200 / 81009.4 11.8 5.2 7.5

Dump ship's entire track history